Latest Coastal Weather Observations for Moruya Airport

IDN60701

Issued at 12:21 am EDT Sunday 22 January 2017 (issued every 10 minutes, with the page automatically refreshed every 10 minutes)

About coastal observations | Map of coastal stations | Coastal observations for NSW | Marine services | Other Formats
Station Details ID: 069148 Name: MORUYA AIRPORT AWS Lat: -35.90 Lon: 150.14 Height: 4.0 m
Data from the previous 72 hours. | See also: Recent months at Moruya Airport
Date/Time
EDT
Temp
°C
Wind Pressure Rain since
9am
mm
Weather Cloud Vis
km
Sea
Height
m
Swell
Dir  Spd
kts
Gust
kts
hPa Trend Height
m
Period
s
Dir
22/12:00am 19.8 SSW 5 7 1017.1 - 0.0 - Cloudy 10 - - - -
 
Date/Time
EDT
Temp
°C
Wind Pressure Rain since
9am
mm
Weather Cloud Vis
km
Sea
Height
m
Swell
Dir  Spd
kts
Gust
kts
hPa Trend Height
m
Period
s
Dir
21/11:30pm 20.0 S 6 11 1017.0 - 0.0 - Cloudy 10 - - - -
21/11:00pm 20.1 S 6 9 1017.1 - 0.0 - Partly cloudy 10 - - - -
21/10:30pm 20.5 SSE 6 10 1017.2 - 0.0 - Partly cloudy 10 - - - -
21/10:00pm 20.2 SSE 5 7 1017.1 - 0.0 - Partly cloudy 10 - - - -
21/09:30pm 20.4 SE 7 10 1016.8 - 0.0 - Partly cloudy 10 - - - -
21/09:00pm 20.2 SSE 7 9 1016.5 - 0.0 - Partly cloudy 10 - - - -
21/08:30pm 20.4 SSE 6 9 1016.2 - 0.0 - Partly cloudy 10 - - - -
21/08:00pm 20.8 SSE 8 11 1015.7 - 0.0 - Partly cloudy 10 - - - -
21/07:30pm 21.0 SSE 9 12 1015.3 - 0.0 - Partly cloudy 10 - - - -
21/07:00pm 21.5 SSE 9 12 1014.7 - 0.0 - Partly cloudy 10 - - - -
21/06:30pm 21.7 SE 9 13 1014.2 - 0.0 - - 10 - - - -
21/06:00pm 22.5 SE 9 13 1013.7 - 0.0 - - 10 - - - -
21/05:30pm 22.4 SE 12 15 1013.5 - 0.0 - - 10 - - - -
21/05:00pm 23.2 SSE 10 13 1013.2 - 0.0 - - 10 - - - -
21/04:30pm 23.3 SE 10 13 1013.0 - 0.0 - - 10 - - - -
21/04:00pm 23.7 SSE 11 15 1012.9 - 0.0 - - 10 - - - -
21/03:30pm 23.4 SE 10 14 1012.7 - 0.0 - - 10 - - - -
21/03:00pm 23.6 SE 10 15 1012.4 - 0.0 - - 10 - - - -
21/02:30pm 23.7 SE 11 15 1012.2 - 0.0 - - 10 - - - -
21/02:00pm 23.2 SE 11 15 1012.0 - 0.0 - - 10 - - - -
21/01:30pm 23.3 SE 11 15 1012.0 - 0.0 - - 10 - - - -
21/01:00pm 23.5 SE 11 15 1011.9 - 0.0 - - 10 - - - -
21/12:30pm 23.6 SE 10 13 1011.6 - 0.0 - - 10 - - - -
21/12:00pm 22.8 SE 11 15 1011.6 - 0.0 - - 10 - - - -
21/11:30am 22.9 ESE 11 14 1011.5 - 0.0 - - 10 - - - -
21/11:00am 22.7 SE 10 12 1011.4 - 0.0 - - 10 - - - -
21/10:30am 22.1 ESE 8 11 1011.4 - 0.0 - - 10 - - - -
21/10:00am 23.0 SSE 6 11 1011.2 - 0.0 - - 10 - - - -
21/09:30am 21.7 SW 7 10 1011.1 - 0.0 - - 10 - - - -
21/09:00am 21.0 SSW 8 12 1011.0 - 1.2 - - 10 - - - -
21/08:30am 19.6 SW 6 8 1010.7 - 1.2 - - 10 - - - -
21/08:00am 17.8 SW 5 6 1010.4 - 1.2 - - 10 - - - -
21/07:30am 16.2 WSW 3 5 1010.1 - 1.2 - - 10 - - - -
21/07:00am 12.7 W 4 5 1009.5 - 1.2 - - 10 - - - -
21/06:30am 10.9 CALM 0 3 1008.8 - 1.2 - - 10 - - - -
21/06:00am 10.8 W 3 4 1008.2 - 1.2 - - 10 - - - -
21/05:30am 10.0 N 3 4 1007.7 - 1.2 - - 10 - - - -
21/05:00am 11.5 SW 6 7 1006.8 - 1.2 - - 10 - - - -
21/04:30am 12.2 W 2 4 1006.2 - 1.2 - - 10 - - - -
21/04:00am 12.4 WNW 2 4 1005.7 - 1.2 - - 10 - - - -
21/03:30am 13.2 W 3 4 1005.3 - 1.2 - - 10 - - - -
21/03:00am 14.5 SW 5 6 1005.1 - 1.2 - - 10 - - - -
21/02:30am 15.5 SW 3 4 1005.0 - 1.2 - - 10 - - - -
21/02:00am 16.5 SW 5 7 1004.7 - 1.2 - - 10 - - - -
21/01:30am 17.3 SW 6 8 1004.4 - 1.2 - - 10 - - - -
21/01:00am 18.3 SW 7 10 1004.1 - 1.2 - - 10 - - - -
21/12:30am 19.8 SSW 10 13 1003.8 - 1.2 - - 10 - - - -
21/12:00am 19.4 SSW 6 9 1003.4 - 1.2 - - 10 - - - -
 
Date/Time
EDT
Temp
°C
Wind Pressure Rain since
9am
mm
Weather Cloud Vis
km
Sea
Height
m
Swell
Dir  Spd
kts
Gust
kts
hPa Trend Height
m
Period
s
Dir
20/11:30pm 20.2 SSW 8 10 1002.9 - 1.2 - - 10 - - - -
20/11:00pm 20.3 SSW 7 10 1002.6 - 1.2 - - 10 - - - -
20/10:30pm 21.6 SSW 14 20 1001.5 - 1.2 - - 10 - - - -
20/10:16pm 21.9 SSW 15 25 1001.2 - 1.2 - - 10 - - - -
20/10:00pm 22.2 SSW 17 25 1000.4 - 1.2 - - 10 - - - -
20/09:46pm 22.5 SSW 16 26 1000.1 - 1.2 - - 10 - - - -
20/09:30pm 22.5 SSW 12 21 999.4 - 1.2 - Partly cloudy 10 - - - -
20/09:00pm 22.0 SSW 4 6 998.5 - 1.2 - Mostly clear 10 - - - -
20/08:30pm 23.0 SW 6 10 997.5 - 1.2 - Partly cloudy 10 - - - -
20/08:00pm 22.9 S 10 16 996.6 - 1.2 - Cloudy 10 - - - -
20/07:30pm 22.9 SSE 13 20 995.6 - 1.2 - Partly cloudy 10 - - - -
20/07:00pm 23.3 S 13 21 994.6 - 1.2 - Partly cloudy 10 - - - -
20/06:30pm 23.5 SSE 15 21 993.7 - 1.2 - Partly cloudy 10 - - - -
20/06:00pm 24.2 SSE 12 18 993.1 - 1.2 - Partly cloudy 10 - - - -
20/05:30pm 24.5 S 14 24 992.7 - 1.2 - - 10 - - - -
20/05:00pm 24.8 S 19 26 991.9 - 1.2 - Partly cloudy 10 - - - -
20/04:42pm 25.2 S 19 29 991.9 - 1.2 - Partly cloudy 10 - - - -
20/04:30pm 25.5 S 23 31 991.9 - 1.2 - Partly cloudy 10 - - - -
20/04:11pm 26.2 S 18 30 990.8 - 1.0 - Partly cloudy 10 - - - -
20/04:05pm 26.4 SSE 13 25 990.8 - 1.0 - Partly cloudy 10 - - - -
20/04:00pm 27.3 NW 7 17 990.5 - 1.0 - Partly cloudy 10 - - - -
20/03:30pm 31.1 NW 11 19 988.8 - 0.8 - Partly cloudy 10 - - - -
20/03:00pm 34.0 WNW 7 14 988.5 - 0.8 - Cloudy 7 - - - -
20/02:30pm 33.8 NW 9 18 988.3 - 0.8 - Partly cloudy 10 - - - -
20/02:00pm 34.4 NNW 11 18 988.6 - 0.8 - Partly cloudy 10 - - - -
20/01:30pm 33.3 NW 13 26 988.8 - 0.8 - - 10 - - - -
20/01:24pm 33.4 NW 15 26 988.8 - 0.8 - - 10 - - - -
20/01:00pm 33.0 NW 11 24 989.1 - 0.8 - - 10 - - - -
20/12:48pm 31.9 NNW 15 26 989.4 - 0.8 - - 10 - - - -
20/12:46pm 31.8 NNW 14 26 989.4 - 0.8 - - 10 - - - -
20/12:30pm 26.8 NNE 12 15 989.9 - 0.8 - - 10 - - - -
20/12:00pm 25.4 N 13 17 990.6 - 0.8 - - 10 - - - -
20/11:30am 22.8 N 8 11 992.0 - 0.8 - - 10 - - - -
20/11:00am 21.0 NNE 10 13 993.0 - 0.8 - - 10 - - - -
20/10:30am 20.3 NNE 7 11 994.7 - 0.8 - - 10 - - - -
20/10:00am 19.8 NW 2 5 995.8 - 0.8 - - 10 - - - -
20/09:31am 19.2 NNW 5 7 996.5 - 0.8 - Partly cloudy 10 - - - -
20/09:30am 19.3 NNW 5 6 996.6 - 0.8 - Partly cloudy 10 - - - -
20/09:14am 19.8 NW 5 7 997.3 - 0.6 - Partly cloudy 5 - - - -
20/09:00am 20.0 NNW 5 7 997.0 - 0.0 - Partly cloudy 10 - - - -
20/08:30am 19.5 NNW 6 9 997.7 - 0.0 - Partly cloudy 10 - - - -
20/08:00am 19.4 NNW 5 6 998.6 - 0.0 - - 10 - - - -
20/07:30am 19.2 N 5 6 999.2 - 0.0 - Partly cloudy 10 - - - -
20/07:00am 19.3 N 6 8 999.8 - 0.0 - - 10 - - - -
20/06:30am 19.5 N 6 9 999.9 - 0.0 - - 10 - - - -
20/06:00am 19.6 N 7 9 1000.3 - 0.0 - Cloudy 10 - - - -
20/05:30am 19.6 N 6 8 1000.8 - 0.0 - Partly cloudy 10 - - - -
20/05:00am 19.7 N 5 8 1001.7 - 0.0 - Partly cloudy 10 - - - -
20/04:30am 19.8 N 4 6 1002.3 - 0.0 - Cloudy 10 - - - -
20/04:00am 19.9 N 7 12 1002.9 - 0.0 - Cloudy 10 - - - -
20/03:30am 20.0 N 9 13 1003.6 - 0.0 - Cloudy 10 - - - -
20/03:00am 20.0 N 9 12 1004.4 - 0.0 - Cloudy 10 - - - -
20/02:30am 20.2 N 9 13 1005.2 - 0.0 - Cloudy 10 - - - -
20/02:00am 20.1 N 8 12 1005.7 - 0.0 - Cloudy 10 - - - -
20/01:30am 19.9 N 6 8 1006.3 - 0.0 - Partly cloudy 10 - - - -
20/01:00am 19.8 N 6 9 1007.2 - 0.0 - Partly cloudy 10 - - - -
20/12:30am 19.6 N 7 10 1007.8 - 0.0 - Cloudy 10 - - - -
20/12:00am 19.2 NNW 4 7 1008.5 - 0.0 - Cloudy 10 - - - -
 
Date/Time
EDT
Temp
°C
Wind Pressure Rain since
9am
mm
Weather Cloud Vis
km
Sea
Height
m
Swell
Dir  Spd
kts
Gust
kts
hPa Trend Height
m
Period
s
Dir
19/11:30pm 19.3 NNW 5 7 1009.1 - 0.0 - Cloudy 10 - - - -
19/11:00pm 19.2 N 4 6 1009.4 - 0.0 - Partly cloudy 10 - - - -
19/10:30pm 19.1 NNW 5 6 1009.5 - 0.0 - Partly cloudy 10 - - - -
19/10:00pm 19.7 N 6 8 1009.9 - 0.0 - Partly cloudy 10 - - - -
19/09:30pm 20.1 N 6 9 1010.0 - 0.0 - Partly cloudy 10 - - - -
19/09:00pm 20.4 N 6 9 1010.3 - 0.0 - Mostly cloudy 10 - - - -
19/08:30pm 20.4 N 8 11 1010.4 - 0.0 - Partly cloudy 10 - - - -
19/08:00pm 20.8 N 7 9 1010.3 - 0.0 - Partly cloudy 10 - - - -
19/07:30pm 21.1 N 5 8 1010.6 - 0.0 - Partly cloudy 10 - - - -
19/07:00pm 21.3 NNE 8 11 1010.7 - 0.0 - Partly cloudy 10 - - - -
19/06:30pm 21.4 N 9 11 1011.0 - 0.0 - Cloudy 10 - - - -
19/06:00pm 21.2 NNE 10 14 1011.3 - 0.0 - Cloudy 10 - - - -
19/05:30pm 21.1 NNE 10 13 1011.5 - 0.0 - Cloudy 10 - - - -
19/05:00pm 21.5 NNE 10 14 1011.8 - 0.0 - Cloudy 10 - - - -
19/04:30pm 21.3 NNE 11 14 1012.2 - 0.0 - Cloudy 10 - - - -
19/04:00pm 21.5 NNE 11 14 1012.6 - 0.0 - Cloudy 10 - - - -
19/03:30pm 21.6 NE 10 12 1013.0 - 0.0 - Cloudy 10 - - - -
19/03:00pm 21.4 NE 9 13 1013.2 - 0.0 - Cloudy 10 - - - -
19/02:30pm 21.3 NE 11 15 1013.4 - 0.0 - Cloudy 10 - - - -
19/02:00pm 22.0 NE 13 16 1013.6 - 0.0 - Partly cloudy 10 - - - -
19/01:30pm 22.8 ENE 9 13 1013.8 - 0.0 - Partly cloudy 10 - - - -
19/01:00pm 22.2 E 7 9 1014.1 - 0.0 - Partly cloudy 10 - - - -
19/12:30pm 21.7 E 5 8 1014.6 - 0.0 - Partly cloudy 10 - - - -
19/12:00pm 20.9 WSW 2 6 1015.1 - 0.0 - Mostly cloudy 10 - - - -
19/11:30am 20.3 SW 1 4 1015.2 - 0.0 - Cloudy 10 - - - -
19/11:00am 19.8 SW 4 5 1015.5 - 0.0 - Cloudy 10 - - - -
19/10:30am 19.1 WNW 1 4 1015.7 - 0.0 - Partly cloudy 10 - - - -
19/10:00am 18.3 CALM 0 2 1015.9 - 0.0 - Cloudy 10 - - - -
19/09:30am 18.3 NNW 3 4 1016.0 - 0.0 - Cloudy 10 - - - -
19/09:00am 18.0 W 3 5 1016.1 - 0.0 - Cloudy 10 - - - -
19/08:30am 17.9 WSW 5 6 1016.0 - 0.0 - Partly cloudy 10 - - - -
19/08:00am 17.6 WSW 5 6 1015.9 - 0.0 - Partly cloudy 10 - - - -
19/07:30am 17.1 WSW 5 6 1015.7 - 0.0 - Cloudy 10 - - - -
19/07:00am 16.8 WSW 4 7 1015.5 - 0.0 - Cloudy 10 - - - -
19/06:30am 16.7 W 5 7 1015.3 - 0.0 - Cloudy 10 - - - -
19/06:00am 16.5 W 5 7 1015.1 - 0.0 - Cloudy 10 - - - -
19/05:30am 16.5 WSW 6 9 1014.9 - 0.0 - Cloudy 10 - - - -
19/05:00am 16.6 WSW 6 9 1014.9 - 0.0 - Cloudy 10 - - - -
19/04:30am 16.7 WSW 6 9 1015.0 - 0.0 - Cloudy 10 - - - -
19/04:00am 16.9 WSW 7 10 1015.1 - 0.0 - Cloudy 10 - - - -
19/03:30am 17.1 SW 8 11 1015.3 - 0.0 - Cloudy 10 - - - -
19/03:00am 17.4 SSW 8 11 1015.6 - 0.0 - Cloudy 10 - - - -
19/02:30am 17.7 SSW 8 12 1016.0 - 0.0 - Cloudy 10 - - - -
19/02:00am 18.0 S 9 12 1016.3 - 0.0 - Cloudy 10 - - - -
19/01:30am 18.2 S 11 15 1016.4 - 0.0 - Partly cloudy 10 - - - -
19/01:00am 18.5 S 12 15 1016.5 - 0.0 - Partly cloudy 10 - - - -
19/12:30am 18.8 S 13 19 1016.4 - 0.0 - Partly cloudy 10 - - - -

Other Formats:

Comma delimited format used in spreadsheet applications
http://www.bom.gov.au/fwo/IDN60701/IDN60701.95937.axf

JavaScript Object Notation format (JSON) in row-major order
http://www.bom.gov.au/fwo/IDN60701/IDN60701.95937.json